Time;durP1;ratioP1;P1;durP2;ratioP2;P2;SDS_P1;SDS_P2;PMS_P1;PMS_P2;Temp;Humidity;BMP_temperature;BMP_pressure;BME280_temperature;BME280_humidity;BME280_pressure;Samples;Min_cycle;Max_cycle;Signal;HPM_P1;HPM_P2
2022/02/25 00:01:49;;;;;;;7.68;2.25;;;;;;;1.86;100.00;101802.09;5221822;28;20055;-72
2022/02/25 00:04:19;;;;;;;9.55;2.25;;;;;;;1.85;100.00;101800.34;5221711;28;20024;-72
2022/02/25 00:06:50;;;;;;;10.10;2.50;;;;;;;1.85;100.00;101804.81;5222274;28;20544;-72
2022/02/25 00:09:20;;;;;;;11.32;2.45;;;;;;;1.89;100.00;101801.03;5222254;28;20478;-72
2022/02/25 00:11:51;;;;;;;14.73;2.20;;;;;;;1.88;100.00;101804.63;5221780;28;20522;-72
2022/02/25 00:14:22;;;;;;;7.13;2.10;;;;;;;1.85;100.00;101802.16;5221558;28;20529;-72
2022/02/25 00:16:52;;;;;;;15.13;1.95;;;;;;;1.90;100.00;101802.75;5221971;28;20528;-72
2022/02/25 00:19:23;;;;;;;7.45;1.88;;;;;;;1.91;100.00;101805.31;5222740;28;20029;-74
2022/02/25 00:21:53;;;;;;;10.50;1.95;;;;;;;1.91;100.00;101801.78;5220383;28;20303;-72
2022/02/25 00:24:24;;;;;;;9.60;1.88;;;;;;;1.94;100.00;101810.44;5221635;28;20017;-72
2022/02/25 00:26:54;;;;;;;8.30;2.35;;;;;;;2.02;100.00;101817.94;5221855;28;20021;-72
2022/02/25 00:29:25;;;;;;;8.63;1.92;;;;;;;2.01;100.00;101813.59;5220321;28;20029;-72
2022/02/25 00:31:55;;;;;;;9.43;1.98;;;;;;;1.99;100.00;101823.41;5221517;28;20183;-73
2022/02/25 00:34:26;;;;;;;14.68;1.92;;;;;;;2.01;100.00;101824.19;5221747;28;20432;-72
2022/02/25 00:36:56;;;;;;;14.80;1.80;;;;;;;2.00;100.00;101830.38;5221661;28;20110;-74
2022/02/25 00:39:26;;;;;;;9.05;1.55;;;;;;;1.96;100.00;101826.25;5221574;28;20045;-73
2022/02/25 00:41:57;;;;;;;8.48;1.60;;;;;;;1.91;100.00;101831.78;5222362;28;20021;-73
2022/02/25 00:44:27;;;;;;;9.00;2.10;;;;;;;1.93;100.00;101829.91;5221214;28;20082;-72
2022/02/25 00:46:58;;;;;;;8.93;1.92;;;;;;;1.93;100.00;101845.78;5221457;28;20064;-73
2022/02/25 00:49:28;;;;;;;9.02;1.50;;;;;;;1.91;100.00;101844.13;5221627;28;20111;-72
2022/02/25 00:51:59;;;;;;;8.13;2.05;;;;;;;1.84;100.00;101848.94;5221328;28;20017;-73
2022/02/25 00:54:30;;;;;;;10.98;1.83;;;;;;;1.91;100.00;101846.78;5211425;28;20021;-72
2022/02/25 00:57:00;;;;;;;10.65;1.58;;;;;;;1.89;100.00;101846.03;5220885;28;20100;-72
2022/02/25 00:59:31;;;;;;;8.10;1.90;;;;;;;1.90;100.00;101858.31;5221035;28;20020;-72
2022/02/25 01:02:01;;;;;;;8.57;2.00;;;;;;;1.88;100.00;101858.41;5211536;28;20071;-72
2022/02/25 01:04:32;;;;;;;17.55;2.00;;;;;;;1.88;100.00;101852.28;5221665;28;20025;-73
2022/02/25 01:07:03;;;;;;;10.75;1.45;;;;;;;1.88;100.00;101853.13;5220871;28;20021;-73
2022/02/25 01:09:34;;;;;;;11.52;1.80;;;;;;;1.84;100.00;101858.66;5221017;28;20028;-73
2022/02/25 01:12:06;;;;;;;15.82;2.38;;;;;;;1.87;100.00;101848.78;5221324;28;20017;-72
2022/02/25 01:14:37;;;;;;;17.10;2.05;;;;;;;1.90;100.00;101858.31;5217510;28;20037;-73
2022/02/25 01:17:07;;;;;;;7.32;1.70;;;;;;;1.98;100.00;101856.97;5221056;28;20502;-72
2022/02/25 01:19:38;;;;;;;6.40;1.38;;;;;;;2.04;100.00;101851.31;5220640;28;20061;-74
2022/02/25 01:22:09;;;;;;;12.05;1.92;;;;;;;2.03;100.00;101860.19;5220581;28;20320;-74
2022/02/25 01:24:41;;;;;;;8.45;1.60;;;;;;;2.02;100.00;101857.66;5217394;28;20040;-74
2022/02/25 01:27:12;;;;;;;15.95;3.15;;;;;;;2.02;100.00;101860.28;5220641;28;20098;-74
2022/02/25 01:29:42;;;;;;;14.93;1.95;;;;;;;1.98;100.00;101861.41;5220668;28;20091;-73
2022/02/25 01:32:13;;;;;;;5.53;1.35;;;;;;;1.96;100.00;101853.56;5219839;28;20021;-73
2022/02/25 01:34:43;;;;;;;8.05;1.33;;;;;;;1.95;100.00;101856.25;5219972;28;20219;-73
2022/02/25 01:37:14;;;;;;;8.07;1.80;;;;;;;1.91;100.00;101867.97;5219943;28;20482;-72
2022/02/25 01:39:45;;;;;;;14.20;2.03;;;;;;;1.90;100.00;101860.97;5220333;28;20428;-73
2022/02/25 01:42:15;;;;;;;13.60;2.08;;;;;;;1.93;100.00;101869.59;5219425;28;20031;-73
2022/02/25 01:44:46;;;;;;;15.45;2.08;;;;;;;1.93;100.00;101871.38;5220692;28;20644;-73
2022/02/25 01:47:17;;;;;;;13.02;2.08;;;;;;;1.94;100.00;101873.09;5220338;28;20155;-73
2022/02/25 01:49:47;;;;;;;13.07;2.75;;;;;;;1.96;100.00;101872.09;5220035;28;20474;-72
2022/02/25 01:52:18;;;;;;;11.77;1.65;;;;;;;1.99;100.00;101876.34;5219536;28;20029;-73
2022/02/25 01:54:49;;;;;;;7.93;1.90;;;;;;;1.98;100.00;101870.19;5218981;28;20036;-73
2022/02/25 01:57:19;;;;;;;15.13;1.80;;;;;;;1.99;100.00;101871.88;5219689;28;20123;-72
2022/02/25 01:59:50;;;;;;;11.65;2.38;;;;;;;2.00;100.00;101873.59;5219639;28;20021;-72
2022/02/25 02:02:20;;;;;;;8.48;1.95;;;;;;;1.94;100.00;101881.88;5216937;28;20493;-72
2022/02/25 02:04:51;;;;;;;7.50;1.67;;;;;;;1.95;100.00;101872.16;5220429;28;20112;-73
2022/02/25 02:07:21;;;;;;;7.18;2.47;;;;;;;1.92;100.00;101881.13;5218862;28;20021;-73
2022/02/25 02:09:57;;;;;;;8.48;1.60;;;;;;;1.98;100.00;101882.56;5220790;28;20363;-72
2022/02/25 02:12:28;;;;;;;14.05;2.90;;;;;;;1.97;100.00;101870.28;5235102;28;20107;-73
2022/02/25 02:14:58;;;;;;;14.25;2.97;;;;;;;1.95;100.00;101873.00;5219973;28;20033;-73
2022/02/25 02:17:29;;;;;;;11.38;2.42;;;;;;;1.90;100.00;101874.19;5219759;28;20131;-72
2022/02/25 02:20:01;;;;;;;10.07;2.28;;;;;;;1.87;100.00;101874.38;5219608;28;20035;-73
2022/02/25 02:22:47;;;;;;;9.90;1.88;;;;;;;1.92;100.00;101870.53;5219790;28;20029;-72
2022/02/25 02:25:17;;;;;;;11.38;2.05;;;;;;;1.90;100.00;101879.50;5212842;28;20036;-74
2022/02/25 02:30:36;;;;;;;17.35;1.88;;;;;;;1.85;100.00;101874.44;5219826;28;20394;-73
2022/02/25 02:33:07;;;;;;;14.43;1.48;;;;;;;1.83;100.00;101863.09;5219529;28;20025;-73
2022/02/25 02:35:38;;;;;;;9.82;2.00;;;;;;;1.79;100.00;101869.50;5219577;28;20547;-72
2022/02/25 02:38:08;;;;;;;10.50;1.88;;;;;;;1.76;100.00;101867.91;5219552;28;20501;-72
2022/02/25 02:40:39;;;;;;;12.98;2.15;;;;;;;1.72;100.00;101878.72;5219277;28;20029;-72
2022/02/25 02:43:12;;;;;;;8.75;1.95;;;;;;;1.71;100.00;101877.03;5219584;28;20359;-73
2022/02/25 02:45:43;;;;;;;9.90;2.25;;;;;;;1.66;100.00;101879.91;5220964;28;20410;-73
2022/02/25 02:48:14;;;;;;;11.00;1.95;;;;;;;1.66;100.00;101873.78;5223637;28;20131;-73
2022/02/25 02:50:45;;;;;;;12.43;1.52;;;;;;;1.69;100.00;101876.25;5224139;28;20115;-73
2022/02/25 02:53:16;;;;;;;7.35;1.95;;;;;;;1.68;100.00;101882.47;5222168;28;20104;-72
2022/02/25 02:55:46;;;;;;;17.65;1.58;;;;;;;1.64;100.00;101880.94;5223290;28;20415;-72
2022/02/25 02:58:22;;;;;;;10.00;2.10;;;;;;;1.65;100.00;101875.53;5212389;28;20096;-72
2022/02/25 03:00:53;;;;;;;11.75;2.13;;;;;;;1.61;100.00;101871.38;5223251;28;20133;-72
2022/02/25 03:03:24;;;;;;;14.93;1.80;;;;;;;1.58;100.00;101875.97;5223151;28;20021;-73
2022/02/25 03:05:55;;;;;;;19.92;3.03;;;;;;;1.60;100.00;101879.38;5222644;28;20020;-72
2022/02/25 03:08:33;;;;;;;10.30;2.42;;;;;;;1.61;100.00;101876.66;5223075;28;20253;-73
2022/02/25 03:11:04;;;;;;;19.88;2.13;;;;;;;1.62;100.00;101878.38;5223180;28;20017;-73
2022/02/25 03:13:36;;;;;;;15.50;2.22;;;;;;;1.59;100.00;101881.16;5222820;28;20036;-73
2022/02/25 03:16:06;;;;;;;12.10;1.95;;;;;;;1.62;100.00;101867.78;5210614;28;20318;-72
2022/02/25 03:18:37;;;;;;;7.55;1.35;;;;;;;1.66;100.00;101874.63;5223179;28;20037;-73
2022/02/25 03:21:10;;;;;;;14.57;2.35;;;;;;;1.63;100.00;101874.78;5223232;28;20013;-73
2022/02/25 03:23:40;;;;;;;17.55;2.38;;;;;;;1.64;100.00;101875.63;5219538;28;20033;-73
2022/02/25 03:26:11;;;;;;;9.73;2.90;;;;;;;1.62;100.00;101878.38;5217188;28;20017;-73
2022/02/25 03:28:41;;;;;;;13.48;1.98;;;;;;;1.66;100.00;101879.06;5221903;28;20021;-73
2022/02/25 03:31:12;;;;;;;15.35;2.15;;;;;;;1.60;100.00;101874.94;5222777;28;20055;-73
2022/02/25 03:33:42;;;;;;;14.75;2.58;;;;;;;1.58;100.00;101881.25;5222910;28;20029;-73
2022/02/25 03:36:13;;;;;;;14.98;2.38;;;;;;;1.60;100.00;101879.38;5223063;28;20025;-73
2022/02/25 03:38:43;;;;;;;15.80;2.42;;;;;;;1.55;100.00;101872.53;5224261;28;20056;-73
2022/02/25 03:41:13;;;;;;;12.23;2.50;;;;;;;1.59;100.00;101869.75;5221278;28;20112;-73
2022/02/25 03:43:44;;;;;;;12.80;1.88;;;;;;;1.58;100.00;101860.94;5224306;28;20201;-73
2022/02/25 03:46:15;;;;;;;10.18;1.92;;;;;;;1.59;100.00;101862.66;5222920;28;20056;-72
2022/02/25 03:48:45;;;;;;;14.63;2.33;;;;;;;1.61;100.00;101857.28;5222583;28;20021;-72
2022/02/25 03:51:17;;;;;;;15.07;2.90;;;;;;;1.59;100.00;101870.59;5221739;28;20112;-73
2022/02/25 03:53:48;;;;;;;9.15;2.08;;;;;;;1.57;100.00;101869.84;5221972;28;20029;-72
2022/02/25 03:56:18;;;;;;;20.67;2.55;;;;;;;1.64;100.00;101860.63;5222350;28;20028;-72
2022/02/25 03:58:49;;;;;;;10.98;2.10;;;;;;;1.68;100.00;101863.94;5221522;28;20483;-72
2022/02/25 04:01:19;;;;;;;8.75;1.80;;;;;;;1.73;100.00;101860.13;5217105;28;20092;-72
2022/02/25 04:03:52;;;;;;;11.70;2.38;;;;;;;1.70;100.00;101870.84;5214200;28;20060;-73
2022/02/25 04:06:22;;;;;;;16.17;3.15;;;;;;;1.83;100.00;101867.56;5222464;28;20102;-74
2022/02/25 04:08:54;;;;;;;21.77;2.92;;;;;;;1.91;100.00;101855.59;5222347;28;20063;-73
2022/02/25 04:11:24;;;;;;;26.48;3.05;;;;;;;1.99;100.00;101865.75;5222682;28;20028;-73
2022/02/25 04:13:55;;;;;;;15.02;2.47;;;;;;;2.05;100.00;101868.03;5221413;28;20272;-73
2022/02/25 04:16:25;;;;;;;21.95;3.20;;;;;;;2.07;100.00;101871.47;5221393;28;20052;-72
2022/02/25 04:18:56;;;;;;;16.48;2.38;;;;;;;2.12;100.00;101860.63;5221989;28;20111;-74
2022/02/25 04:21:26;;;;;;;16.10;2.00;;;;;;;2.13;100.00;101862.31;5222187;28;20025;-72
2022/02/25 04:23:57;;;;;;;18.95;2.17;;;;;;;2.14;100.00;101871.97;5216945;28;20017;-72
2022/02/25 04:26:28;;;;;;;17.05;1.98;;;;;;;2.20;100.00;101869.81;5218671;28;20044;-73
2022/02/25 04:28:59;;;;;;;12.35;2.00;;;;;;;2.22;100.00;101873.25;5220941;28;20071;-72
2022/02/25 04:31:29;;;;;;;17.42;1.85;;;;;;;2.26;100.00;101864.19;5221694;28;20413;-73
2022/02/25 04:34:00;;;;;;;12.25;2.25;;;;;;;2.25;100.00;101874.84;5221177;28;20101;-73
2022/02/25 04:36:33;;;;;;;17.10;2.20;;;;;;;2.21;100.00;101874.19;5221153;28;20033;-74
2022/02/25 04:39:05;;;;;;;11.40;1.50;;;;;;;2.15;100.00;101865.72;5221224;28;20045;-73
2022/02/25 04:41:36;;;;;;;19.20;2.67;;;;;;;2.11;100.00;101872.13;5220503;28;20032;-73
2022/02/25 04:44:08;;;;;;;7.18;2.05;;;;;;;2.11;100.00;101877.44;5221384;28;20475;-73
2022/02/25 04:46:39;;;;;;;13.10;1.90;;;;;;;2.19;100.00;101873.41;5221079;28;20383;-73
2022/02/25 04:49:09;;;;;;;9.30;1.52;;;;;;;2.23;100.00;101860.88;5221264;28;20502;-73
2022/02/25 04:51:40;;;;;;;23.85;2.22;;;;;;;2.26;100.00;101871.25;5220755;28;20108;-73
2022/02/25 04:54:10;;;;;;;16.83;2.92;;;;;;;2.21;100.00;101874.19;5220314;28;20067;-72
2022/02/25 04:56:41;;;;;;;17.55;3.55;;;;;;;2.17;100.00;101869.16;5220932;28;20067;-73
2022/02/25 04:59:11;;;;;;;22.02;2.85;;;;;;;2.16;100.00;101873.59;5221070;28;20025;-72
2022/02/25 05:01:43;;;;;;;16.88;2.85;;;;;;;2.12;100.00;101871.22;5221364;28;20401;-73
2022/02/25 05:04:14;;;;;;;19.58;2.20;;;;;;;2.13;100.00;101871.13;5211965;28;20099;-72
2022/02/25 05:06:44;;;;;;;10.73;2.78;;;;;;;2.10;100.00;101881.88;5220976;28;20562;-72
2022/02/25 05:09:15;;;;;;;17.30;2.67;;;;;;;2.16;100.00;101872.72;5218889;28;20032;-73
2022/02/25 05:11:45;;;;;;;12.15;3.20;;;;;;;2.23;100.00;101869.66;5220717;28;20455;-73
2022/02/25 05:22:43;;;;;;;10.60;2.20;;;;;;;2.46;100.00;101876.28;5217025;28;20044;-74
2022/02/25 05:25:13;;;;;;;20.23;3.90;;;;;;;2.51;100.00;101871.59;5209704;28;20021;-74
2022/02/25 05:27:44;;;;;;;28.67;4.72;;;;;;;2.57;100.00;101876.50;5218973;28;20378;-74
2022/02/25 05:30:15;;;;;;;19.55;6.35;;;;;;;2.64;100.00;101870.84;5223271;28;20060;-73
2022/02/25 05:32:47;;;;;;;9.70;2.67;;;;;;;2.68;100.00;101883.81;5225328;28;20092;-75
2022/02/25 05:35:18;;;;;;;15.32;2.53;;;;;;;2.72;100.00;101866.81;5220881;28;20426;-75
2022/02/25 05:37:49;;;;;;;18.50;3.38;;;;;;;2.76;100.00;101875.41;5220239;28;20032;-75
2022/02/25 05:40:21;;;;;;;16.13;3.75;;;;;;;2.72;100.00;101871.25;5223059;28;20099;-75
2022/02/25 05:42:52;;;;;;;13.32;4.18;;;;;;;2.75;100.00;101897.56;5226313;28;20024;-75
2022/02/25 05:45:23;;;;;;;22.33;2.67;;;;;;;2.78;100.00;101887.66;5225699;28;20391;-75
2022/02/25 05:47:53;;;;;;;15.68;2.92;;;;;;;2.84;100.00;101897.03;5226487;28;20375;-76
2022/02/25 05:50:24;;;;;;;13.73;2.83;;;;;;;2.88;100.00;101897.72;5225090;28;20021;-73
2022/02/25 05:52:55;;;;;;;9.35;3.03;;;;;;;2.89;100.00;101894.97;5220519;28;20490;-74
2022/02/25 05:55:26;;;;;;;21.67;3.33;;;;;;;2.90;100.00;101894.00;5221498;28;20031;-73
2022/02/25 05:57:57;;;;;;;14.85;2.97;;;;;;;2.96;100.00;101911.34;5216129;28;20025;-73
2022/02/25 06:00:28;;;;;;;15.57;2.65;;;;;;;3.07;100.00;101923.03;5204337;28;20082;-73
2022/02/25 06:02:58;;;;;;;22.05;3.17;;;;;;;3.16;100.00;101932.22;5208951;28;20029;-73
2022/02/25 06:05:29;;;;;;;23.13;2.88;;;;;;;3.16;100.00;101942.81;5215884;28;20028;-73
2022/02/25 06:08:00;;;;;;;25.77;5.30;;;;;;;3.19;100.00;101932.03;5217616;28;20049;-73
2022/02/25 06:10:31;;;;;;;8.32;2.47;;;;;;;3.20;100.00;101941.69;5217299;28;20140;-73
2022/02/25 06:13:02;;;;;;;7.13;1.75;;;;;;;3.16;100.00;101932.22;5218638;28;20127;-72
2022/02/25 06:15:32;;;;;;;16.00;2.10;;;;;;;3.15;100.00;101933.16;5217440;28;20029;-73
2022/02/25 06:18:03;;;;;;;20.38;2.90;;;;;;;3.14;100.00;101944.72;5217266;28;20027;-72
2022/02/25 06:20:33;;;;;;;15.52;2.15;;;;;;;3.10;100.00;101952.00;5219643;28;20025;-73
2022/02/25 06:23:05;;;;;;;22.00;2.80;;;;;;;3.11;100.00;101956.38;5217822;28;20256;-73
2022/02/25 06:25:36;;;;;;;26.95;3.20;;;;;;;3.17;100.00;101960.47;5215664;28;20025;-72
2022/02/25 06:28:08;;;;;;;16.50;3.80;;;;;;;3.18;100.00;101961.31;5221990;28;20051;-72
2022/02/25 06:30:39;;;;;;;18.25;2.70;;;;;;;3.24;100.00;101955.63;5221639;28;20513;-71
2022/02/25 06:33:09;;;;;;;19.10;4.47;;;;;;;3.26;100.00;101967.00;5221114;28;20065;-73
2022/02/25 06:35:40;;;;;;;15.93;3.63;;;;;;;3.22;100.00;101965.50;5216323;28;20032;-73
2022/02/25 06:38:11;;;;;;;21.70;3.92;;;;;;;3.23;100.00;101962.75;5202946;28;20017;-72
2022/02/25 06:40:41;;;;;;;14.63;4.50;;;;;;;3.30;100.00;101964.06;5221505;28;20025;-73
2022/02/25 06:43:12;;;;;;;23.70;5.88;;;;;;;3.29;100.00;101970.31;5220991;28;20020;-73
2022/02/25 06:45:43;;;;;;;39.75;8.75;;;;;;;3.38;100.00;101977.72;5222143;28;20403;-73
2022/02/25 06:48:13;;;;;;;43.13;11.68;;;;;;;3.34;100.00;101984.16;5221918;28;20025;-72
2022/02/25 06:50:44;;;;;;;38.58;9.95;;;;;;;3.33;100.00;101981.63;5221705;28;20082;-73
2022/02/25 06:53:14;;;;;;;18.98;5.28;;;;;;;3.31;100.00;101989.66;5221741;28;20290;-73
2022/02/25 06:55:45;;;;;;;25.13;5.57;;;;;;;3.38;100.00;101985.69;5221586;28;20485;-74
2022/02/25 06:58:17;;;;;;;33.60;7.75;;;;;;;3.32;100.00;101988.72;5221811;28;20425;-72
2022/02/25 07:00:48;;;;;;;22.63;4.47;;;;;;;3.24;100.00;102001.56;5220888;28;20142;-73
2022/02/25 07:03:18;;;;;;;18.88;4.05;;;;;;;3.16;100.00;101995.00;5221234;28;20173;-74
2022/02/25 07:05:49;;;;;;;18.30;3.40;;;;;;;3.06;100.00;102013.25;5222106;28;20120;-74
2022/02/25 07:08:21;;;;;;;23.27;2.75;;;;;;;2.95;100.00;102007.72;5221645;28;20065;-74
2022/02/25 07:10:52;;;;;;;14.27;2.38;;;;;;;2.98;100.00;102012.84;5221783;28;20025;-73
2022/02/25 07:13:22;;;;;;;17.70;3.30;;;;;;;3.06;100.00;102015.91;5221603;28;20036;-73
2022/02/25 07:15:53;;;;;;;15.40;2.58;;;;;;;3.15;100.00;102022.47;5221638;28;20478;-73
2022/02/25 07:18:24;;;;;;;17.33;3.58;;;;;;;3.22;100.00;102011.44;5221372;28;20204;-73
2022/02/25 07:20:55;;;;;;;23.13;3.33;;;;;;;3.27;100.00;102019.13;5222073;28;20071;-74
2022/02/25 07:23:25;;;;;;;16.70;2.90;;;;;;;3.38;100.00;102030.78;5242990;28;20288;-74
2022/02/25 07:25:56;;;;;;;15.38;3.33;;;;;;;3.37;100.00;102026.44;5219489;28;20021;-73
2022/02/25 07:28:26;;;;;;;17.17;3.47;;;;;;;3.41;100.00;102031.53;5221533;28;20035;-71
2022/02/25 07:30:57;;;;;;;21.02;5.68;;;;;;;3.42;100.00;102038.56;5222029;28;20482;-73
2022/02/25 07:33:27;;;;;;;12.50;2.70;;;;;;;3.46;100.00;102040.06;5220541;28;20193;-73
2022/02/25 07:35:58;;;;;;;15.52;2.42;;;;;;;3.46;100.00;102035.63;5221320;28;20130;-72
2022/02/25 07:38:28;;;;;;;19.85;2.67;;;;;;;3.49;100.00;102042.56;5220963;28;20228;-73
2022/02/25 07:40:59;;;;;;;15.45;3.83;;;;;;;3.54;100.00;102046.66;5221293;28;20029;-73
2022/02/25 07:43:29;;;;;;;17.92;3.20;;;;;;;3.57;100.00;102051.78;5221375;28;20120;-73
2022/02/25 07:46:00;;;;;;;22.63;2.65;;;;;;;3.70;100.00;102059.84;5219897;28;20029;-73
2022/02/25 07:48:30;;;;;;;17.15;4.05;;;;;;;3.87;100.00;102054.38;5220603;28;20017;-73
2022/02/25 07:51:01;;;;;;;14.77;2.67;;;;;;;4.00;100.00;102062.44;5221429;28;20017;-72
2022/02/25 07:53:33;;;;;;;24.52;3.47;;;;;;;4.33;100.00;102071.94;5219778;28;20383;-73
2022/02/25 07:56:04;;;;;;;23.88;3.47;;;;;;;4.30;100.00;102065.00;5220968;28;20060;-71
2022/02/25 07:58:34;;;;;;;16.40;2.80;;;;;;;4.32;100.00;102072.88;5220298;28;20070;-72
2022/02/25 08:01:05;;;;;;;20.75;3.97;;;;;;;4.27;100.00;102081.16;5221521;28;20021;-72
2022/02/25 08:03:35;;;;;;;22.95;3.15;;;;;;;4.23;100.00;102082.28;5220259;28;20071;-72
2022/02/25 08:06:06;;;;;;;14.45;2.75;;;;;;;4.27;100.00;102085.59;5218095;28;20016;-73
2022/02/25 08:08:37;;;;;;;19.83;2.90;;;;;;;4.26;100.00;102095.34;5219827;28;20021;-73
2022/02/25 08:11:07;;;;;;;18.75;2.92;;;;;;;4.30;100.00;102101.34;5221068;28;20432;-73
2022/02/25 08:13:38;;;;;;;29.85;3.58;;;;;;;4.37;100.00;102094.72;5220833;28;20085;-73
2022/02/25 08:16:10;;;;;;;15.30;3.42;;;;;;;4.39;100.00;102112.25;5220200;28;20641;-73
2022/02/25 08:18:41;;;;;;;18.65;3.47;;;;;;;4.41;100.00;102118.31;5221095;28;20029;-73
2022/02/25 08:21:11;;;;;;;19.88;3.63;;;;;;;4.44;100.00;102122.59;5220357;28;20304;-73
2022/02/25 08:23:43;;;;;;;14.20;2.97;;;;;;;4.45;100.00;102126.94;5222293;28;20497;-73
2022/02/25 08:26:13;;;;;;;19.33;3.22;;;;;;;4.50;100.00;102134.66;5220623;28;20044;-72
2022/02/25 08:28:44;;;;;;;15.95;3.08;;;;;;;4.51;100.00;102139.00;5220217;28;20040;-73
2022/02/25 08:31:15;;;;;;;21.70;3.78;;;;;;;4.58;100.00;102132.38;5220173;28;20033;-73
2022/02/25 08:33:46;;;;;;;19.13;2.70;;;;;;;4.64;100.00;102140.81;5220287;28;21285;-73
2022/02/25 08:36:18;;;;;;;11.00;2.25;;;;;;;4.71;100.00;102143.91;5220185;28;20390;-73
2022/02/25 08:38:48;;;;;;;22.98;3.10;;;;;;;4.67;100.00;102150.41;5220424;28;20171;-72
2022/02/25 08:41:19;;;;;;;18.33;4.65;;;;;;;4.71;100.00;102153.72;5219064;28;20530;-73
2022/02/25 08:43:49;;;;;;;26.52;4.18;;;;;;;4.70;100.00;102155.50;5217798;28;20090;-72
2022/02/25 08:46:22;;;;;;;21.00;4.18;;;;;;;4.80;100.00;102161.09;5219801;28;20108;-72
2022/02/25 08:48:52;;;;;;;18.35;3.50;;;;;;;4.84;100.00;102157.31;5219916;28;20469;-73
2022/02/25 08:51:22;;;;;;;22.23;3.30;;;;;;;4.95;100.00;102154.81;5219712;28;20116;-72
2022/02/25 08:53:53;;;;;;;23.45;4.55;;;;;;;4.95;100.00;102149.50;5207378;28;20056;-73
2022/02/25 08:56:24;;;;;;;26.13;4.43;;;;;;;5.01;100.00;102161.53;5219111;28;20027;-73
2022/02/25 08:58:55;;;;;;;22.75;3.13;;;;;;;5.14;100.00;102168.66;5219974;28;20025;-73
2022/02/25 09:01:26;;;;;;;18.52;3.67;;;;;;;5.22;100.00;102165.50;5219132;28;20059;-73
2022/02/25 09:04:00;;;;;;;26.42;3.47;;;;;;;5.11;100.00;102166.16;5218760;28;20060;-73
2022/02/25 09:06:31;;;;;;;23.02;4.85;;;;;;;5.14;100.00;102170.47;5213506;28;20079;-73
2022/02/25 09:09:02;;;;;;;20.27;3.10;;;;;;;5.83;100.00;102180.09;5219196;28;20049;-72
2022/02/25 09:11:32;;;;;;;15.07;2.97;;;;;;;6.76;100.00;102183.44;5219036;28;20478;-73
2022/02/25 09:14:03;;;;;;;15.38;3.22;;;;;;;7.96;100.00;102188.88;5251275;28;20025;-73
2022/02/25 09:16:33;;;;;;;19.58;3.80;;;;;;;7.96;100.00;102183.53;5218215;28;20293;-73
2022/02/25 09:19:04;;;;;;;22.23;4.15;;;;;;;7.95;100.00;102185.34;5218760;28;20033;-73
2022/02/25 09:21:35;;;;;;;31.70;6.18;;;;;;;7.61;100.00;102196.88;5218507;28;20020;-73
2022/02/25 09:24:06;;;;;;;21.55;4.55;;;;;;;7.17;100.00;102201.81;5205476;28;20083;-73
2022/02/25 09:26:37;;;;;;;24.55;4.30;;;;;;;7.12;100.00;102208.47;5218715;28;20029;-73
2022/02/25 09:29:07;;;;;;;22.70;3.92;;;;;;;6.93;100.00;102224.97;5218287;28;20380;-73
2022/02/25 09:31:39;;;;;;;19.98;3.22;;;;;;;6.86;100.00;102211.19;5218391;28;20478;-73
2022/02/25 09:34:09;;;;;;;20.33;3.28;;;;;;;6.89;100.00;102215.47;5217437;28;20450;-72
2022/02/25 09:36:41;;;;;;;26.08;5.43;;;;;;;6.94;100.00;102215.97;5218813;28;20063;-73
2022/02/25 09:39:12;;;;;;;27.85;4.32;;;;;;;7.50;100.00;102206.53;5218310;28;20045;-73
2022/02/25 09:41:44;;;;;;;17.67;2.50;;;;;;;8.24;100.00;102219.69;5217914;28;20029;-73
2022/02/25 09:44:15;;;;;;;21.13;5.55;;;;;;;7.97;100.00;102214.63;5218538;28;20506;-74
2022/02/25 09:46:45;;;;;;;16.60;3.25;;;;;;;8.19;100.00;102227.22;5218182;28;20025;-73
2022/02/25 09:49:16;;;;;;;17.95;3.15;;;;;;;8.13;100.00;102233.00;5218407;28;20090;-73
2022/02/25 09:51:47;;;;;;;18.08;2.83;;;;;;;7.90;100.00;102232.09;5214713;28;20063;-73
2022/02/25 09:54:18;;;;;;;21.50;3.42;;;;;;;7.73;100.00;102236.88;5218384;28;20071;-74
2022/02/25 09:56:49;;;;;;;18.27;3.10;;;;;;;7.62;100.00;102242.16;5221453;28;20617;-73
2022/02/25 09:59:20;;;;;;;18.10;3.60;;;;;;;7.72;100.00;102255.69;5223402;28;20037;-73
2022/02/25 10:01:50;;;;;;;17.90;4.85;;;;;;;7.83;100.00;102253.09;5223557;28;20035;-73
2022/02/25 10:04:22;;;;;;;22.90;5.28;;;;;;;7.89;100.00;102252.63;5220642;28;20028;-73
2022/02/25 10:06:53;;;;;;;19.15;3.63;;;;;;;7.75;100.00;102260.81;5217803;28;20018;-73
2022/02/25 10:09:39;;;;;;;19.10;3.85;;;;;;;7.79;100.00;102254.28;5222526;28;20301;-73
2022/02/25 10:12:12;;;;;;;32.92;5.47;;;;;;;7.79;100.00;102260.47;5233332;28;20040;-74
2022/02/25 10:14:45;;;;;;;21.08;4.47;;;;;;;7.84;100.00;102261.94;5220717;28;20120;-73
2022/02/25 10:17:27;;;;;;;22.98;4.10;;;;;;;7.90;100.00;102265.00;5222136;28;20066;-73
2022/02/25 10:20:00;;;;;;;28.02;5.13;;;;;;;7.74;100.00;102267.13;5222871;28;20074;-73
2022/02/25 10:22:51;;;;;;;15.68;4.78;;;;;;;7.81;100.00;102276.38;5221057;28;20020;-73
2022/02/25 10:25:24;;;;;;;22.63;3.72;;;;;;;7.81;100.00;102272.84;5211312;28;20293;-73
2022/02/25 10:27:55;;;;;;;18.17;3.20;;;;;;;7.57;100.00;102275.50;5222355;28;20025;-73
2022/02/25 10:30:28;;;;;;;22.30;4.13;;;;;;;7.44;100.00;102286.22;5221677;28;20532;-73
2022/02/25 10:32:58;;;;;;;20.92;3.25;;;;;;;7.42;100.00;102283.66;5221982;28;20020;-73
2022/02/25 10:35:33;;;;;;;17.80;3.50;;;;;;;7.52;100.00;102281.16;5221660;28;20025;-73
2022/02/25 10:38:06;;;;;;;15.82;3.00;;;;;;;7.64;100.00;102280.28;5214175;28;20086;-73
2022/02/25 10:40:39;;;;;;;17.15;3.10;;;;;;;7.64;100.00;102292.81;5221914;28;20117;-73
2022/02/25 10:43:28;;;;;;;13.85;2.53;;;;;;;7.69;100.00;102285.31;5221663;28;20099;-73
2022/02/25 10:46:09;;;;;;;23.48;3.72;;;;;;;8.04;100.00;102291.56;5221097;28;20017;-74
2022/02/25 10:48:44;;;;;;;14.57;2.47;;;;;;;8.48;100.00;102298.09;5221696;28;20150;-73
2022/02/25 10:51:22;;;;;;;21.40;3.00;;;;;;;8.78;100.00;102293.97;5221550;28;20020;-73
2022/02/25 10:53:54;;;;;;;16.73;3.85;;;;;;;9.03;100.00;102304.47;5221764;28;20263;-73
2022/02/25 10:56:24;;;;;;;19.00;3.92;;;;;;;9.29;100.00;102313.16;5220819;28;20033;-73
2022/02/25 10:58:56;;;;;;;44.70;12.75;;;;;;;9.16;100.00;102314.22;5220518;28;20221;-73
2022/02/25 11:01:44;;;;;;;17.67;5.90;;;;;;;9.41;100.00;102311.31;5221999;28;20024;-73
2022/02/25 11:04:15;;;;;;;15.48;3.13;;;;;;;9.11;100.00;102311.91;5216022;28;20052;-73
2022/02/25 11:06:48;;;;;;;23.70;3.78;;;;;;;8.97;100.00;102317.50;5221437;28;20419;-73
2022/02/25 11:09:19;;;;;;;22.17;4.38;;;;;;;8.76;100.00;102326.22;5220161;28;20078;-73
2022/02/25 11:11:50;;;;;;;33.20;5.82;;;;;;;8.53;100.00;102324.44;5221605;28;20112;-73
2022/02/25 11:14:20;;;;;;;16.23;4.25;;;;;;;8.38;100.00;102326.47;5221266;28;20122;-73
2022/02/25 11:16:51;;;;;;;20.10;3.38;;;;;;;8.35;100.00;102328.50;5221292;28;20379;-73
2022/02/25 11:19:24;;;;;;;21.60;2.60;;;;;;;8.30;100.00;102331.53;5221031;28;20024;-73
2022/02/25 11:21:57;;;;;;;19.63;4.00;;;;;;;8.16;100.00;102347.75;5221314;28;20075;-73
2022/02/25 11:24:32;;;;;;;17.98;2.72;;;;;;;7.98;100.00;102347.25;5219731;28;20028;-73
2022/02/25 11:27:02;;;;;;;19.58;3.25;;;;;;;7.82;100.00;102338.66;5221228;28;20056;-73
2022/02/25 11:29:49;;;;;;;17.20;2.50;;;;;;;7.79;100.00;102347.78;5221387;28;20314;-73
2022/02/25 11:32:25;;;;;;;26.38;3.55;;;;;;;7.79;100.00;102355.81;5220897;28;20060;-73
2022/02/25 11:34:55;;;;;;;20.20;3.63;;;;;;;7.81;100.00;102361.03;5220689;28;20501;-73
2022/02/25 11:37:46;;;;;;;16.45;6.22;;;;;;;7.63;100.00;102372.09;5219777;28;20242;-73
2022/02/25 11:40:36;;;;;;;18.13;2.42;;;;;;;7.65;100.00;102366.63;5220912;28;20026;-73
2022/02/25 11:43:08;;;;;;;15.98;3.70;;;;;;;7.73;100.00;102369.56;5221417;28;20037;-73
2022/02/25 11:45:49;;;;;;;17.35;3.13;;;;;;;7.81;100.00;102379.72;5221041;28;20025;-73
2022/02/25 11:48:36;;;;;;;12.15;2.13;;;;;;;7.83;100.00;102370.66;5220331;28;20021;-74
2022/02/25 11:51:09;;;;;;;20.70;2.67;;;;;;;7.89;100.00;102382.72;5220491;28;20039;-73